LiveATC.Net - Listen to live air traffic control over the Internet!

ICAO: KHIO  IATA: HIO   Airport: Portland-Hillsboro Airport
City: Portland   State/Province: Oregon
Country: United States   Continent: North America
KHIO METAR Weather: KHIO 242253Z 16011KT 10SM FEW015 OVC060 11/10 A2971 RMK AO2 RAE51 SLP060 P0003 T01110100
KHIO Flight Activity (FlightAware)
KHIO Airport Info   (AirNav) (iFlightPlanner)
KHIO VFR Sectional Chart   (iFlightPlanner) 
KHIO IFR Low Chart   (iFlightPlanner) 
KHIO Ground/Tower
Feed Status: UP   Listeners: 0
Listen right in your browser - requires Flash (in browser, requires Flash)
Click here to listen with your own player (launches your MP3 player)
KHIO Ground/Tower Audio Archives
Hillsboro Ground121.700
Hillsboro Helicopter Patterns120.550
Hillsboro Tower119.300


Unauthorized use prohibited. See Terms of Service

Find LiveATC Audio Streams

Airport/ARTCC Code

(e.g., 124.400, 128.75)
Site-wide search

Browse LiveATC Feeds
LiveATC Coverage Map
Top 50 LiveATC Feeds
Bad Weather Areas

Offer a LiveATC Feed
Press Inquiries

LiveATC on iPhone
LiveATC on Android

Windows Phone
Windows 8/10

LiveATC Mobile
(Mobile browser)

ATC Audio Archives
Interesting Recordings

LiveATC Forums

Home Page
Make a Donation
LiveATC Store

Terms of Use
Privacy Policy

Canadian Air Freqs


FAA Airport Status
Nat'l Airspace Status
Arrival Demand Charts

Server Software By: